createdAt,value
2023-02-11T00:00:17.168Z,23.02
2023-02-11T00:02:46.130Z,25.63
2023-02-11T00:05:14.263Z,27.47
2023-02-11T00:07:40.692Z,22.08
2023-02-11T00:10:07.942Z,25.40
2023-02-11T00:12:35.713Z,23.20
2023-02-11T00:15:02.201Z,22.05
2023-02-11T00:17:28.598Z,23.50
2023-02-11T00:19:54.985Z,25.35
2023-02-11T00:22:21.450Z,27.80
2023-02-11T00:24:47.853Z,22.15
2023-02-11T00:27:14.236Z,19.60
2023-02-11T00:29:40.642Z,25.30
2023-02-11T00:32:08.832Z,24.13
2023-02-11T00:34:36.643Z,19.70
2023-02-11T00:37:03.328Z,28.30
2023-02-11T00:39:30.287Z,22.60
2023-02-11T00:41:56.913Z,25.93
2023-02-11T00:44:23.794Z,24.63
2023-02-11T00:46:50.204Z,25.63
2023-02-11T00:49:16.563Z,21.75
2023-02-11T00:51:42.954Z,20.83
2023-02-11T00:54:09.400Z,22.83
2023-02-11T00:56:35.773Z,25.02
2023-02-11T00:59:02.174Z,19.40
2023-02-11T01:01:28.717Z,21.27
2023-02-11T01:03:55.089Z,26.13
2023-02-11T01:06:21.448Z,22.33
2023-02-11T01:08:47.869Z,23.77
2023-02-11T01:11:18.223Z,19.75
2023-02-11T01:13:45.397Z,19.13
2023-02-11T01:16:14.987Z,20.98
2023-02-11T01:18:44.195Z,21.77
2023-02-11T01:21:11.326Z,22.02
2023-02-11T01:23:37.865Z,22.25
2023-02-11T01:26:04.418Z,23.90
2023-02-11T01:28:31.160Z,22.50
2023-02-11T01:30:57.686Z,21.07
2023-02-11T01:33:24.789Z,24.83
2023-02-11T01:35:51.996Z,22.55
2023-02-11T01:38:23.301Z,25.15
2023-02-11T01:40:55.722Z,24.40
2023-02-11T01:43:23.908Z,27.27
2023-02-11T01:45:59.141Z,23.42
2023-02-11T01:48:31.195Z,26.13
2023-02-11T01:51:04.728Z,25.05
2023-02-11T01:53:51.583Z,27.23
2023-02-11T01:56:38.909Z,21.03
2023-02-11T01:59:16.839Z,25.05
2023-02-11T02:01:48.298Z,23.08
2023-02-11T02:04:19.031Z,25.55
2023-02-11T02:06:59.789Z,23.13
2023-02-11T02:09:31.140Z,28.70
2023-02-11T02:11:57.614Z,23.83
2023-02-11T02:14:24.112Z,24.42
2023-02-11T02:16:50.618Z,30.98
2023-02-11T02:20:06.362Z,26.92
2023-02-11T02:22:45.833Z,28.63
2023-02-11T02:25:14.775Z,22.90
2023-02-11T02:27:59.643Z,28.20
2023-02-11T02:30:38.418Z,25.42
2023-02-11T02:33:37.814Z,26.65
2023-02-11T02:36:07.934Z,25.77
2023-02-11T02:38:43.157Z,33.60
2023-02-11T02:41:16.015Z,25.67
2023-02-11T02:43:47.568Z,29.88
2023-02-11T02:46:21.218Z,26.27
2023-02-11T02:48:52.638Z,34.70
2023-02-11T02:51:54.194Z,32.45
2023-02-11T02:54:46.926Z,30.40
2023-02-11T02:57:44.767Z,28.05
2023-02-11T03:00:23.889Z,27.38
2023-02-11T03:03:27.743Z,27.93
2023-02-11T03:06:06.150Z,24.92
2023-02-11T03:08:45.934Z,26.23
2023-02-11T03:11:17.188Z,31.05
2023-02-11T03:13:45.460Z,33.17
2023-02-11T03:16:19.651Z,31.87
2023-02-11T03:18:56.316Z,30.88
2023-02-11T03:21:24.257Z,35.03
2023-02-11T03:23:55.119Z,34.97
2023-02-11T03:26:32.231Z,29.73
2023-02-11T03:29:07.816Z,31.83
2023-02-11T03:31:41.746Z,36.75
2023-02-11T03:34:29.811Z,38.17
2023-02-11T03:37:25.365Z,29.23
2023-02-11T03:39:57.196Z,34.97
2023-02-11T03:42:30.121Z,36.47
2023-02-11T03:45:04.052Z,39.03
2023-02-11T03:47:34.730Z,40.92
2023-02-11T03:50:04.445Z,39.70
2023-02-11T03:52:32.698Z,36.85
2023-02-11T03:55:03.770Z,38.03
2023-02-11T03:57:30.456Z,36.42
2023-02-11T03:59:58.459Z,36.05
2023-02-11T04:02:29.290Z,37.75
2023-02-11T04:04:55.791Z,38.58
2023-02-11T04:07:22.269Z,38.67
2023-02-11T04:09:48.734Z,40.30
2023-02-11T04:12:15.136Z,38.80
2023-02-11T04:14:41.547Z,36.50
2023-02-11T04:17:08.373Z,41.05
2023-02-11T04:19:34.912Z,38.03
2023-02-11T04:22:01.384Z,38.03
2023-02-11T04:24:27.979Z,41.33
2023-02-11T04:26:54.419Z,38.40
2023-02-11T04:29:20.867Z,40.17
2023-02-11T04:31:47.352Z,37.13
2023-02-11T04:34:13.872Z,40.42
2023-02-11T04:36:40.269Z,40.30
2023-02-11T04:39:07.233Z,38.55
2023-02-11T04:41:34.122Z,37.85
2023-02-11T04:44:00.521Z,33.43
2023-02-11T04:46:27.024Z,41.55
2023-02-11T04:48:53.510Z,37.53
2023-02-11T04:51:19.922Z,35.53
2023-02-11T04:53:46.293Z,41.47
2023-02-11T04:56:12.723Z,36.40
2023-02-11T04:58:39.102Z,36.65
2023-02-11T05:01:10.507Z,41.35
2023-02-11T05:03:37.708Z,43.83
2023-02-11T05:06:04.958Z,36.75
2023-02-11T05:08:31.613Z,43.80
2023-02-11T05:10:58.054Z,38.58
2023-02-11T05:13:24.540Z,35.67
2023-02-11T05:15:51.279Z,43.13
2023-02-11T05:18:17.820Z,39.25
2023-02-11T05:20:44.501Z,41.03
2023-02-11T05:23:11.385Z,41.53
2023-02-11T05:25:37.876Z,41.97
2023-02-11T05:28:04.918Z,42.80
2023-02-11T05:30:31.918Z,41.85
2023-02-11T05:32:58.345Z,41.10
2023-02-11T05:35:24.719Z,43.63
2023-02-11T05:37:51.253Z,38.47
2023-02-11T05:40:17.796Z,39.63
2023-02-11T05:42:44.181Z,37.33
2023-02-11T05:45:10.598Z,38.37
2023-02-11T05:47:37.008Z,38.42
2023-02-11T05:50:03.682Z,41.97
2023-02-11T05:52:30.077Z,43.42
2023-02-11T05:54:56.545Z,42.40
2023-02-11T05:57:22.941Z,40.40
2023-02-11T05:59:49.327Z,39.88
2023-02-11T06:02:15.759Z,35.15
2023-02-11T06:04:42.205Z,47.97
2023-02-11T06:07:08.623Z,38.60
2023-02-11T06:09:35.008Z,44.80
2023-02-11T06:12:01.385Z,38.30
2023-02-11T06:14:27.770Z,45.50
2023-02-11T06:16:54.222Z,41.60
2023-02-11T06:19:20.596Z,40.30
2023-02-11T06:21:46.975Z,43.90
2023-02-11T06:24:13.437Z,37.58
2023-02-11T06:26:39.816Z,39.50
2023-02-11T06:29:06.255Z,40.25
2023-02-11T06:31:32.854Z,35.72
2023-02-11T06:33:59.352Z,33.87
2023-02-11T06:36:25.918Z,35.45
2023-02-11T06:38:53.080Z,37.55
2023-02-11T06:41:22.958Z,37.67
2023-02-11T06:43:49.600Z,41.75
2023-02-11T06:46:16.178Z,37.50
2023-02-11T06:48:44.731Z,36.80
2023-02-11T06:51:13.301Z,35.38
2023-02-11T06:53:43.253Z,31.70
2023-02-11T06:56:16.117Z,36.67
2023-02-11T06:58:43.054Z,37.13
2023-02-11T07:01:14.826Z,36.20
2023-02-11T07:03:44.599Z,37.83
2023-02-11T07:06:17.588Z,40.47
2023-02-11T07:08:45.914Z,35.10
2023-02-11T07:11:14.296Z,37.73
2023-02-11T07:13:40.788Z,37.08
2023-02-11T07:16:09.773Z,34.47
2023-02-11T07:18:36.580Z,41.47
2023-02-11T07:21:07.670Z,36.20
2023-02-11T07:23:35.339Z,33.37
2023-02-11T07:26:06.075Z,36.97
2023-02-11T07:28:34.636Z,36.17
2023-02-11T07:31:10.608Z,37.80
2023-02-11T07:33:37.729Z,34.13
2023-02-11T07:36:05.826Z,38.40
2023-02-11T07:38:33.162Z,35.88
2023-02-11T07:41:06.908Z,34.42
2023-02-11T07:43:33.502Z,41.03
2023-02-11T07:46:02.692Z,39.00
2023-02-11T07:48:29.105Z,39.77
2023-02-11T07:50:55.501Z,41.42
2023-02-11T07:53:21.885Z,39.67
2023-02-11T07:55:48.411Z,39.10
2023-02-11T07:58:14.862Z,40.15
2023-02-11T08:00:41.269Z,37.00
2023-02-11T08:03:08.318Z,41.55
2023-02-11T08:05:38.148Z,43.22
2023-02-11T08:08:04.624Z,38.67
2023-02-11T08:10:30.978Z,39.28
2023-02-11T08:12:57.341Z,38.60
2023-02-11T08:15:23.725Z,39.40
2023-02-11T08:17:50.111Z,35.78
2023-02-11T08:20:16.963Z,43.17
2023-02-11T08:22:43.463Z,41.50
2023-02-11T08:25:10.048Z,38.40
2023-02-11T08:27:36.466Z,39.83
2023-02-11T08:30:03.023Z,37.33
2023-02-11T08:32:29.503Z,40.28
2023-02-11T08:34:56.051Z,36.50
2023-02-11T08:37:22.861Z,38.90
2023-02-11T08:39:49.247Z,40.33
2023-02-11T08:42:15.693Z,34.78
2023-02-11T08:44:42.331Z,43.05
2023-02-11T08:47:08.921Z,36.50
2023-02-11T08:49:36.244Z,36.30
2023-02-11T08:52:04.156Z,39.30
2023-02-11T08:54:31.736Z,35.42
2023-02-11T08:56:58.389Z,37.03
2023-02-11T08:59:24.957Z,38.78
2023-02-11T09:01:51.489Z,34.83
2023-02-11T09:04:18.012Z,38.90
2023-02-11T09:12:01.591Z,34.85
2023-02-11T09:14:28.503Z,33.90
2023-02-11T09:16:55.189Z,32.92
2023-02-11T09:24:45.212Z,30.88
2023-02-11T09:27:11.563Z,30.83
2023-02-11T09:29:37.990Z,32.92
2023-02-11T09:32:05.714Z,33.78
2023-02-11T09:34:33.006Z,33.67
2023-02-11T09:36:59.340Z,32.65
2023-02-11T09:39:26.710Z,31.97
2023-02-11T09:42:18.796Z,38.40
2023-02-11T09:44:46.648Z,30.98
2023-02-11T09:47:25.722Z,35.00
2023-02-11T09:49:59.946Z,29.73
2023-02-11T09:52:32.130Z,32.43
2023-02-11T09:55:01.829Z,33.10
2023-02-11T09:57:37.431Z,28.02
2023-02-11T10:00:22.686Z,33.63
2023-02-11T10:03:21.349Z,31.52
2023-02-11T10:05:53.718Z,31.17
2023-02-11T10:08:39.201Z,27.38
2023-02-11T10:11:32.345Z,31.92
2023-02-11T10:14:03.908Z,33.53
2023-02-11T10:16:49.116Z,30.38
2023-02-11T10:19:30.580Z,31.60
2023-02-11T10:22:10.570Z,30.48
2023-02-11T10:24:38.090Z,32.83
2023-02-11T10:27:16.423Z,27.42
2023-02-11T10:30:02.613Z,27.27
2023-02-11T10:32:48.308Z,31.10
2023-02-11T10:35:18.881Z,26.73
2023-02-11T10:37:45.631Z,30.20
2023-02-11T10:40:18.237Z,25.98
2023-02-11T10:42:49.566Z,25.27
2023-02-11T10:45:23.461Z,24.97
2023-02-11T10:47:49.904Z,27.02
2023-02-11T10:50:35.080Z,23.42
2023-02-11T10:53:20.905Z,26.85
2023-02-11T10:55:57.289Z,25.08
2023-02-11T10:58:27.924Z,27.50
2023-02-11T11:00:56.645Z,27.15
2023-02-11T11:03:25.987Z,24.65
2023-02-11T11:05:58.656Z,22.33
2023-02-11T11:08:40.885Z,21.60
2023-02-11T11:11:11.113Z,25.50
2023-02-11T11:13:40.582Z,25.30
2023-02-11T11:16:12.830Z,21.85
2023-02-11T11:18:41.690Z,25.25
2023-02-11T11:21:15.149Z,24.90
2023-02-11T11:23:49.316Z,27.37
2023-02-11T11:26:17.238Z,20.40
2023-02-11T11:28:54.143Z,24.25
2023-02-11T11:31:25.189Z,19.98
2023-02-11T11:33:54.917Z,28.02
2023-02-11T11:36:24.710Z,27.60
2023-02-11T11:38:56.131Z,23.95
2023-02-11T11:41:24.927Z,23.80
2023-02-11T11:44:00.139Z,20.13
2023-02-11T11:46:39.025Z,21.52
2023-02-11T11:49:30.990Z,21.77
2023-02-11T11:52:33.300Z,19.92
2023-02-11T11:55:14.341Z,18.92
2023-02-11T11:57:40.912Z,22.10
2023-02-11T12:00:16.794Z,21.15
2023-02-11T12:02:58.488Z,20.63
2023-02-11T12:05:34.604Z,21.45
2023-02-11T12:08:19.205Z,20.58
2023-02-11T12:11:07.017Z,18.08
2023-02-11T12:13:48.873Z,18.27
2023-02-11T12:16:21.320Z,19.60
2023-02-11T12:18:56.977Z,19.27
2023-02-11T12:21:35.320Z,23.30
2023-02-11T12:24:38.996Z,20.67
2023-02-11T12:27:16.656Z,21.17
2023-02-11T12:30:14.378Z,17.30
2023-02-11T12:33:16.007Z,13.40
2023-02-11T12:35:54.871Z,13.93
2023-02-11T12:38:31.880Z,16.13
2023-02-11T12:41:15.032Z,16.35
2023-02-11T12:43:44.341Z,14.90
2023-02-11T12:46:52.433Z,17.45
2023-02-11T12:49:27.699Z,12.95
2023-02-11T12:52:21.523Z,16.13
2023-02-11T12:55:15.646Z,16.55
2023-02-11T12:57:44.942Z,14.53
2023-02-11T13:00:34.533Z,13.32
2023-02-11T13:03:18.433Z,20.08
2023-02-11T13:06:07.762Z,16.73
2023-02-11T13:08:38.706Z,13.32
2023-02-11T13:11:16.016Z,18.60
2023-02-11T13:13:45.170Z,15.05
2023-02-11T13:16:47.525Z,13.85
2023-02-11T13:19:13.970Z,16.02
2023-02-11T13:22:05.156Z,13.57
2023-02-11T13:24:34.465Z,15.10
2023-02-11T13:27:23.617Z,15.27
2023-02-11T13:30:14.767Z,14.00
2023-02-11T13:33:16.595Z,13.38
2023-02-11T13:35:48.862Z,15.30
2023-02-11T13:38:25.018Z,15.13
2023-02-11T13:41:18.163Z,14.32
2023-02-11T13:43:56.537Z,15.73
2023-02-11T13:46:22.995Z,15.27
2023-02-11T13:48:52.975Z,14.73
2023-02-11T13:51:37.029Z,15.40
2023-02-11T13:54:05.714Z,15.85
2023-02-11T13:56:37.957Z,16.00
2023-02-11T13:59:25.885Z,12.40
2023-02-11T14:02:38.601Z,11.75
2023-02-11T14:05:23.297Z,17.00
2023-02-11T14:08:33.487Z,12.90
2023-02-11T14:11:08.371Z,15.52
2023-02-11T14:13:55.024Z,12.85
2023-02-11T14:16:36.845Z,13.18
2023-02-11T14:19:05.997Z,13.97
2023-02-11T14:21:36.365Z,16.95
2023-02-11T14:24:04.668Z,12.82
2023-02-11T14:26:52.469Z,12.80
2023-02-11T14:29:50.968Z,9.73
2023-02-11T14:32:37.949Z,10.83
2023-02-11T14:35:19.366Z,17.13
2023-02-11T14:38:07.437Z,15.85
2023-02-11T14:40:55.474Z,14.07
2023-02-11T14:43:30.902Z,16.00
2023-02-11T14:45:58.802Z,12.67
2023-02-11T14:48:38.033Z,12.63
2023-02-11T14:51:13.523Z,12.65
2023-02-11T14:53:46.510Z,15.32
2023-02-11T14:56:31.068Z,13.20
2023-02-11T14:58:58.153Z,12.33
2023-02-11T15:01:30.104Z,16.42
2023-02-11T15:03:58.246Z,12.23
2023-02-11T15:06:28.803Z,13.50
2023-02-11T15:09:00.836Z,18.85
2023-02-11T15:11:32.199Z,15.83
2023-02-11T15:14:10.594Z,14.73
2023-02-11T15:16:43.021Z,15.00
2023-02-11T15:19:21.101Z,12.65
2023-02-11T15:21:47.850Z,14.65
2023-02-11T15:24:30.948Z,11.00
2023-02-11T15:27:03.085Z,14.43
2023-02-11T15:29:46.849Z,15.05
2023-02-11T15:32:15.408Z,13.10
2023-02-11T15:34:42.440Z,17.67
2023-02-11T15:37:14.021Z,14.00
2023-02-11T15:39:42.095Z,18.08
2023-02-11T15:42:27.037Z,11.75
2023-02-11T15:45:16.189Z,16.83
2023-02-11T15:47:49.677Z,16.27
2023-02-11T15:50:24.402Z,13.37
2023-02-11T15:52:52.432Z,15.48
2023-02-11T15:55:19.925Z,15.40
2023-02-11T15:57:53.354Z,17.42
2023-02-11T16:00:22.689Z,14.75
2023-02-11T16:02:50.873Z,12.90
2023-02-11T16:05:28.195Z,14.65
2023-02-11T16:07:55.782Z,12.32
2023-02-11T16:10:24.798Z,16.77
2023-02-11T16:12:53.443Z,16.45
2023-02-11T16:15:53.501Z,15.07
2023-02-11T16:18:39.994Z,12.95
2023-02-11T16:21:15.912Z,12.93
2023-02-11T16:23:43.574Z,12.82
2023-02-11T16:26:43.074Z,12.10
2023-02-11T16:29:18.078Z,10.57
2023-02-11T16:31:47.145Z,17.90
2023-02-11T16:34:25.416Z,12.45
2023-02-11T16:36:52.593Z,16.52
2023-02-11T16:39:22.846Z,13.52
2023-02-11T16:41:50.740Z,12.40
2023-02-11T16:44:18.148Z,13.57
2023-02-11T16:46:44.880Z,11.30
2023-02-11T16:49:22.989Z,15.75
2023-02-11T16:51:51.349Z,11.00
2023-02-11T16:54:18.621Z,17.77
2023-02-11T16:56:45.777Z,17.63
2023-02-11T16:59:12.231Z,12.55
2023-02-11T17:01:40.173Z,15.95
2023-02-11T17:04:07.402Z,18.13
2023-02-11T17:06:34.932Z,15.67
2023-02-11T17:09:01.489Z,18.65
2023-02-11T17:11:27.874Z,12.65
2023-02-11T17:13:54.210Z,13.55
2023-02-11T17:16:24.931Z,15.93
2023-02-11T17:18:51.425Z,16.53
2023-02-11T17:21:17.804Z,14.35
2023-02-11T17:23:45.971Z,14.20
2023-02-11T17:26:12.413Z,8.90
2023-02-11T17:28:38.894Z,15.98
2023-02-11T17:31:09.627Z,17.23
2023-02-11T17:33:37.750Z,16.67
2023-02-11T17:36:08.888Z,14.50
2023-02-11T17:38:37.047Z,14.57
2023-02-11T17:41:04.796Z,14.23
2023-02-11T17:43:32.234Z,16.97
2023-02-11T17:45:58.643Z,18.25
2023-02-11T17:48:25.196Z,16.73
2023-02-11T17:50:51.620Z,14.25
2023-02-11T17:53:18.020Z,12.45
2023-02-11T17:55:44.424Z,16.20
2023-02-11T17:58:10.794Z,18.23
2023-02-11T18:00:37.244Z,15.55
2023-02-11T18:03:03.804Z,23.48
2023-02-11T18:05:35.595Z,14.32
2023-02-11T18:08:03.614Z,15.20
2023-02-11T18:10:30.284Z,15.43
2023-02-11T18:12:56.691Z,12.77
2023-02-11T18:15:23.219Z,15.13
2023-02-11T18:17:49.604Z,16.90
2023-02-11T18:20:16.081Z,15.37
2023-02-11T18:22:44.167Z,16.85
2023-02-11T18:25:14.002Z,14.45
2023-02-11T18:27:40.519Z,13.73
2023-02-11T18:30:08.312Z,17.58
2023-02-11T18:32:34.736Z,18.70
2023-02-11T18:35:01.121Z,15.20
2023-02-11T18:37:27.492Z,14.00
2023-02-11T18:39:54.153Z,15.68
2023-02-11T18:42:20.552Z,16.08
2023-02-11T18:44:46.920Z,16.27
2023-02-11T18:47:13.340Z,13.60
2023-02-11T18:49:39.686Z,12.35
2023-02-11T18:52:06.047Z,16.70
2023-02-11T18:54:32.429Z,13.45
2023-02-11T18:56:58.781Z,11.73
2023-02-11T18:59:25.223Z,14.13
2023-02-11T19:01:51.781Z,13.45
2023-02-11T19:04:19.914Z,14.77
2023-02-11T19:06:48.961Z,16.75
2023-02-11T19:09:18.508Z,17.53
2023-02-11T19:11:53.798Z,19.63
2023-02-11T19:14:23.370Z,18.80
2023-02-11T19:16:52.732Z,14.80
2023-02-11T19:19:20.394Z,16.85
2023-02-11T19:21:47.503Z,15.60
2023-02-11T19:24:16.105Z,18.42
2023-02-11T19:26:42.882Z,14.85
2023-02-11T19:29:09.309Z,16.63
2023-02-11T19:31:35.932Z,17.40
2023-02-11T19:34:03.391Z,16.33
2023-02-11T19:36:30.050Z,16.08
2023-02-11T19:38:59.706Z,14.98
2023-02-11T19:41:26.201Z,20.35
2023-02-11T19:43:52.946Z,24.27
2023-02-11T19:46:21.118Z,23.53
2023-02-11T19:48:48.488Z,16.52
2023-02-11T19:51:15.762Z,22.30
2023-02-11T19:53:43.387Z,18.08
2023-02-11T19:56:10.525Z,23.92
2023-02-11T19:58:38.803Z,21.87
2023-02-11T20:01:26.197Z,20.95
2023-02-11T20:03:54.618Z,24.00
2023-02-11T20:06:24.093Z,21.27
2023-02-11T20:08:57.990Z,25.08
2023-02-11T20:11:25.405Z,21.43
2023-02-11T20:13:51.797Z,22.88
2023-02-11T20:16:21.105Z,22.90
2023-02-11T20:18:48.716Z,28.48
2023-02-11T20:21:22.960Z,24.30
2023-02-11T20:23:50.503Z,19.17
2023-02-11T20:26:20.991Z,21.73
2023-02-11T20:28:48.693Z,18.52
2023-02-11T20:31:15.885Z,23.27
2023-02-11T20:33:42.552Z,23.58
2023-02-11T20:36:23.860Z,21.33
2023-02-11T20:38:51.029Z,22.42
2023-02-11T20:41:18.923Z,19.00
2023-02-11T20:43:48.424Z,19.35
2023-02-11T20:46:17.651Z,20.55
2023-02-11T20:48:44.114Z,23.90
2023-02-11T20:51:13.853Z,23.35
2023-02-11T20:53:47.738Z,22.00
2023-02-11T20:56:14.732Z,20.35
2023-02-11T20:58:41.537Z,17.65
2023-02-11T21:01:19.688Z,23.60
2023-02-11T21:03:57.801Z,20.02
2023-02-11T21:06:27.393Z,23.25
2023-02-11T21:08:54.175Z,22.23
2023-02-11T21:11:21.094Z,19.63
2023-02-11T21:13:48.691Z,23.10
2023-02-11T21:16:17.995Z,21.95
2023-02-11T21:18:44.346Z,26.83
2023-02-11T21:21:10.812Z,19.15
2023-02-11T21:23:39.488Z,22.63
2023-02-11T21:26:06.914Z,19.87
2023-02-11T21:28:34.023Z,18.92
2023-02-11T21:31:00.570Z,26.15
2023-02-11T21:33:27.740Z,22.30
2023-02-11T21:35:56.188Z,20.75
2023-02-11T21:38:23.182Z,20.33
2023-02-11T21:40:50.184Z,19.10
2023-02-11T21:43:16.639Z,24.35
2023-02-11T21:45:44.867Z,23.20
2023-02-11T21:48:11.892Z,19.38
2023-02-11T21:50:43.036Z,17.70
2023-02-11T21:53:10.196Z,21.75
2023-02-11T21:55:37.330Z,20.48
2023-02-11T21:58:04.459Z,18.02
2023-02-11T22:00:31.737Z,20.67
2023-02-11T22:02:58.333Z,23.17
2023-02-11T22:05:24.901Z,19.75
2023-02-11T22:07:51.683Z,20.10
2023-02-11T22:10:19.156Z,21.80
2023-02-11T22:12:46.038Z,22.98
2023-02-11T22:15:12.974Z,21.83
2023-02-11T22:17:39.604Z,24.27
2023-02-11T22:20:06.970Z,23.52
2023-02-11T22:22:33.502Z,22.70
2023-02-11T22:25:01.822Z,26.75
2023-02-11T22:27:28.256Z,21.23
2023-02-11T22:29:54.643Z,21.05
2023-02-11T22:32:21.153Z,19.98
2023-02-11T22:34:47.559Z,24.13
2023-02-11T22:37:14.988Z,27.13
2023-02-11T22:39:42.578Z,22.57
2023-02-11T22:42:09.103Z,22.08
2023-02-11T22:44:36.930Z,21.08
2023-02-11T22:47:03.480Z,27.13
2023-02-11T22:49:32.375Z,18.70
2023-02-11T22:51:59.309Z,23.93
2023-02-11T22:54:25.906Z,25.70
2023-02-11T22:56:53.223Z,20.33
2023-02-11T22:59:20.072Z,25.40
2023-02-11T23:01:46.986Z,25.30
2023-02-11T23:04:15.849Z,20.20
2023-02-11T23:06:42.761Z,23.30
2023-02-11T23:09:12.135Z,25.55
2023-02-11T23:11:39.735Z,21.23
2023-02-11T23:14:08.479Z,22.63
2023-02-11T23:16:34.995Z,29.17
2023-02-11T23:19:08.392Z,27.10
2023-02-11T23:21:37.584Z,30.63
2023-02-11T23:24:10.837Z,26.25
2023-02-11T23:26:39.644Z,23.42
2023-02-11T23:29:07.137Z,29.03
2023-02-11T23:31:37.769Z,31.27
2023-02-11T23:34:04.562Z,26.92
2023-02-11T23:36:31.528Z,25.23
2023-02-11T23:38:58.040Z,28.23
2023-02-11T23:41:24.795Z,30.70
2023-02-11T23:43:53.644Z,29.70
2023-02-11T23:46:21.973Z,36.35
2023-02-11T23:48:49.635Z,29.48
2023-02-11T23:51:16.740Z,35.03
2023-02-11T23:53:43.375Z,38.70
2023-02-11T23:56:13.427Z,31.58
2023-02-11T23:58:39.834Z,35.10
